createdAt,value
2018-07-13T00:01:33.707Z,18.10
2018-07-13T00:04:02.261Z,18.00
2018-07-13T00:06:36.026Z,17.90
2018-07-13T00:09:07.170Z,17.80
2018-07-13T00:11:35.870Z,17.80
2018-07-13T00:14:10.277Z,17.70
2018-07-13T00:16:38.864Z,17.70
2018-07-13T00:19:07.785Z,17.60
2018-07-13T00:21:36.591Z,17.60
2018-07-13T00:24:06.031Z,17.60
2018-07-13T00:26:34.872Z,17.60
2018-07-13T00:29:03.524Z,17.60
2018-07-13T00:31:32.434Z,17.60
2018-07-13T00:34:01.033Z,17.60
2018-07-13T00:36:30.770Z,17.70
2018-07-13T00:38:59.564Z,17.70
2018-07-13T00:41:28.495Z,17.60
2018-07-13T00:44:03.488Z,17.60
2018-07-13T00:46:38.554Z,17.60
2018-07-13T00:49:07.065Z,17.50
2018-07-13T00:51:35.630Z,17.50
2018-07-13T00:54:04.247Z,17.50
2018-07-13T00:56:32.858Z,17.40
2018-07-13T00:59:01.856Z,17.40
2018-07-13T01:01:30.369Z,17.30
2018-07-13T01:03:58.906Z,17.20
2018-07-13T01:06:27.426Z,17.20
2018-07-13T01:08:55.983Z,17.20
2018-07-13T01:11:24.643Z,17.20
2018-07-13T01:13:53.385Z,17.20
2018-07-13T01:16:21.828Z,17.10
2018-07-13T01:18:50.357Z,17.10
2018-07-13T01:21:18.954Z,17.10
2018-07-13T01:23:47.460Z,17.10
2018-07-13T01:26:16.012Z,17.10
2018-07-13T01:28:46.050Z,17.10
2018-07-13T01:31:15.781Z,17.00
2018-07-13T01:34:01.420Z,17.00
2018-07-13T01:39:35.693Z,17.00
2018-07-13T01:47:02.797Z,16.90
2018-07-13T01:49:46.159Z,16.90
2018-07-13T01:52:20.905Z,16.80
2018-07-13T02:05:16.209Z,16.60
2018-07-13T02:08:16.045Z,16.50
2018-07-13T02:11:11.532Z,16.50
2018-07-13T02:25:23.728Z,16.50
2018-07-13T02:28:07.836Z,16.50
2018-07-13T02:43:35.276Z,16.50
2018-07-13T02:56:39.237Z,16.30
2018-07-13T03:03:26.166Z,16.40
2018-07-13T03:29:41.919Z,16.40
2018-07-13T03:32:21.149Z,16.40
2018-07-13T04:05:46.427Z,16.40
2018-07-13T04:08:15.000Z,16.40
2018-07-13T04:10:43.577Z,16.30
2018-07-13T04:13:12.146Z,16.30
2018-07-13T04:15:40.774Z,16.20
2018-07-13T04:18:19.340Z,16.20
2018-07-13T04:20:48.122Z,16.20
2018-07-13T04:23:16.656Z,16.10
2018-07-13T04:25:45.280Z,16.00
2018-07-13T04:28:13.929Z,15.90
2018-07-13T04:30:42.968Z,15.80
2018-07-13T04:33:11.607Z,15.70
2018-07-13T04:35:40.228Z,15.70
2018-07-13T04:38:08.736Z,15.60
2018-07-13T04:40:37.821Z,15.70
2018-07-13T04:43:06.429Z,15.70
2018-07-13T04:45:35.246Z,15.80
2018-07-13T04:48:04.130Z,15.80
2018-07-13T04:50:33.637Z,15.80
2018-07-13T04:53:02.291Z,15.80
2018-07-13T04:55:30.946Z,15.80
2018-07-13T04:57:59.541Z,15.80
2018-07-13T05:00:28.230Z,15.80
2018-07-13T05:02:56.862Z,15.90
2018-07-13T05:05:28.338Z,15.90
2018-07-13T05:07:56.968Z,16.00
2018-07-13T05:10:25.622Z,16.10
2018-07-13T05:12:54.101Z,16.30
2018-07-13T05:15:22.610Z,16.40
2018-07-13T05:17:52.193Z,16.50
2018-07-13T05:20:20.713Z,16.60
2018-07-13T05:22:49.281Z,16.80
2018-07-13T05:25:17.893Z,16.80
2018-07-13T05:27:46.690Z,16.90
2018-07-13T05:30:18.021Z,16.90
2018-07-13T05:32:46.609Z,17.00
2018-07-13T05:35:15.346Z,17.20
2018-07-13T05:37:43.944Z,17.30
2018-07-13T05:40:12.663Z,17.50
2018-07-13T05:42:41.317Z,17.60
2018-07-13T05:45:09.936Z,17.60
2018-07-13T05:47:38.586Z,17.70
2018-07-13T05:50:07.246Z,17.80
2018-07-13T05:52:35.854Z,17.90
2018-07-13T05:55:04.475Z,18.00
2018-07-13T05:57:33.067Z,18.10
2018-07-13T06:00:01.728Z,18.10
2018-07-13T06:02:30.762Z,18.20
2018-07-13T06:04:59.386Z,18.20
2018-07-13T06:07:27.940Z,18.20
2018-07-13T06:09:56.654Z,18.40
2018-07-13T06:12:25.293Z,18.60
2018-07-13T06:14:53.901Z,18.80
2018-07-13T06:17:22.463Z,19.00
2018-07-13T06:19:50.968Z,19.30
2018-07-13T06:22:19.498Z,19.50
2018-07-13T06:24:48.069Z,19.70
2018-07-13T06:27:16.609Z,19.90
2018-07-13T06:29:45.223Z,19.90
2018-07-13T06:32:13.808Z,19.80
2018-07-13T06:34:42.343Z,19.90
2018-07-13T06:37:10.951Z,19.90
2018-07-13T06:39:39.552Z,20.00
2018-07-13T06:42:08.169Z,20.10
2018-07-13T06:44:36.821Z,20.20
2018-07-13T06:47:05.430Z,20.30
2018-07-13T06:49:34.004Z,20.20
2018-07-13T06:52:02.614Z,20.10
2018-07-13T06:54:31.129Z,20.10
2018-07-13T06:56:59.665Z,20.10
2018-07-13T06:59:28.237Z,20.20
2018-07-13T07:01:56.792Z,20.30
2018-07-13T07:04:27.355Z,20.30
2018-07-13T07:06:56.555Z,20.40
2018-07-13T07:09:26.197Z,20.50
2018-07-13T07:14:05.076Z,20.50
2018-07-13T07:16:42.055Z,20.60
2018-07-13T07:19:11.024Z,20.80
2018-07-13T07:21:40.026Z,20.90
2018-07-13T07:24:08.595Z,21.10
2018-07-13T07:26:37.209Z,21.30
2018-07-13T07:29:06.696Z,21.40
2018-07-13T07:31:35.256Z,21.60
2018-07-13T07:34:03.846Z,21.60
2018-07-13T07:36:32.493Z,21.70
2018-07-13T07:39:01.393Z,21.80
2018-07-13T07:41:30.103Z,21.90
2018-07-13T07:43:58.706Z,21.90
2018-07-13T07:46:27.843Z,22.00
2018-07-13T07:48:56.598Z,22.10
2018-07-13T07:51:25.131Z,22.20
2018-07-13T07:53:53.891Z,22.30
2018-07-13T07:56:22.541Z,22.30
2018-07-13T07:58:51.324Z,22.30
2018-07-13T08:01:19.909Z,22.40
2018-07-13T08:03:48.504Z,22.50
2018-07-13T08:06:17.421Z,22.50
2018-07-13T08:08:45.969Z,22.40
2018-07-13T08:11:14.636Z,22.50
2018-07-13T08:13:43.249Z,22.60
2018-07-13T08:16:11.892Z,22.70
2018-07-13T08:18:40.463Z,22.80
2018-07-13T08:21:09.146Z,22.90
2018-07-13T08:23:37.882Z,23.00
2018-07-13T08:26:06.895Z,23.00
2018-07-13T08:28:35.576Z,23.20
2018-07-13T08:31:04.656Z,23.40
2018-07-13T08:33:33.507Z,23.50
2018-07-13T08:36:02.256Z,23.50
2018-07-13T08:38:30.830Z,23.50
2018-07-13T08:40:59.587Z,23.50
2018-07-13T08:43:28.382Z,23.60
2018-07-13T08:45:58.869Z,23.70
2018-07-13T08:48:27.506Z,23.90
2018-07-13T08:50:56.321Z,24.10
2018-07-13T08:53:24.950Z,24.20
2018-07-13T08:55:55.375Z,24.40
2018-07-13T08:58:23.977Z,24.60
2018-07-13T09:00:52.669Z,24.70
2018-07-13T09:03:25.183Z,24.80
2018-07-13T09:05:54.407Z,25.00
2018-07-13T09:08:22.891Z,25.20
2018-07-13T09:10:51.745Z,25.30
2018-07-13T09:13:20.346Z,25.40
2018-07-13T09:15:48.987Z,25.20
2018-07-13T09:20:46.868Z,25.30
2018-07-13T09:23:15.432Z,25.20
2018-07-13T09:25:44.180Z,25.30
2018-07-13T09:28:12.769Z,25.40
2018-07-13T09:30:41.305Z,25.60
2018-07-13T09:33:09.977Z,25.70
2018-07-13T09:38:09.726Z,25.80
2018-07-13T09:40:39.246Z,26.10
2018-07-13T09:43:08.031Z,26.30
2018-07-13T09:45:37.253Z,26.50
2018-07-13T09:48:07.941Z,26.60
2018-07-13T09:50:36.595Z,26.50
2018-07-13T09:53:05.501Z,26.70
2018-07-13T09:55:34.743Z,26.90
2018-07-13T09:58:04.661Z,27.00
2018-07-13T10:00:39.394Z,27.10
2018-07-13T10:03:08.321Z,27.30
2018-07-13T10:05:37.167Z,27.30
2018-07-13T10:08:05.787Z,27.40
2018-07-13T10:10:35.562Z,27.40
2018-07-13T10:13:04.868Z,27.30
2018-07-13T10:15:33.448Z,27.30
2018-07-13T10:18:02.763Z,27.40
2018-07-13T10:20:33.303Z,27.40
2018-07-13T10:23:01.901Z,27.50
2018-07-13T10:25:31.220Z,27.70
2018-07-13T10:28:02.995Z,27.70
2018-07-13T10:30:32.184Z,27.60
2018-07-13T10:33:00.788Z,27.60
2018-07-13T10:35:31.806Z,27.70
2018-07-13T10:38:01.888Z,28.10
2018-07-13T10:40:32.856Z,28.30
2018-07-13T10:43:03.060Z,28.60
2018-07-13T10:45:32.353Z,28.90
2018-07-13T10:48:01.764Z,29.00
2018-07-13T10:50:33.884Z,28.90
2018-07-13T10:53:02.520Z,28.60
2018-07-13T10:55:31.350Z,28.60
2018-07-13T10:58:00.756Z,28.80
2018-07-13T11:00:30.059Z,28.90
2018-07-13T11:02:59.106Z,29.10
2018-07-13T11:05:27.787Z,29.20
2018-07-13T11:07:56.409Z,29.50
2018-07-13T11:10:25.108Z,29.70
2018-07-13T11:12:53.935Z,29.70
2018-07-13T11:15:22.596Z,29.70
2018-07-13T11:17:54.989Z,29.70
2018-07-13T11:20:23.561Z,29.40
2018-07-13T11:22:52.200Z,29.40
2018-07-13T11:25:21.753Z,29.50
2018-07-13T11:27:51.113Z,29.60
2018-07-13T11:30:19.758Z,30.00
2018-07-13T11:32:48.238Z,30.30
2018-07-13T11:35:16.780Z,30.60
2018-07-13T11:37:45.412Z,30.90
2018-07-13T11:40:14.477Z,31.10
2018-07-13T11:42:43.396Z,31.30
2018-07-13T11:45:12.205Z,31.40
2018-07-13T11:47:40.735Z,31.40
2018-07-13T11:50:09.519Z,31.60
2018-07-13T11:52:38.049Z,31.70
2018-07-13T11:55:06.832Z,31.90
2018-07-13T11:57:35.339Z,32.10
2018-07-13T12:00:04.029Z,32.30
2018-07-13T12:02:32.543Z,32.00
2018-07-13T12:05:01.112Z,31.90
2018-07-13T12:07:29.968Z,32.00
2018-07-13T12:09:58.498Z,32.00
2018-07-13T12:12:27.102Z,32.40
2018-07-13T12:14:55.876Z,33.40
2018-07-13T12:17:26.952Z,35.10
2018-07-13T12:19:55.616Z,36.60
2018-07-13T12:22:24.605Z,37.70
2018-07-13T12:24:53.149Z,38.70
2018-07-13T12:27:38.120Z,39.50
2018-07-13T12:30:06.693Z,40.10
2018-07-13T12:32:35.213Z,40.70
2018-07-13T12:35:03.789Z,41.00
2018-07-13T12:37:32.275Z,41.50
2018-07-13T12:40:00.843Z,41.20
2018-07-13T12:42:29.347Z,40.00
2018-07-13T12:44:57.919Z,39.20
2018-07-13T12:47:26.459Z,39.20
2018-07-13T12:49:55.002Z,40.20
2018-07-13T12:52:23.555Z,40.50
2018-07-13T12:54:52.131Z,39.00
2018-07-13T12:57:20.863Z,36.50
2018-07-13T12:59:49.515Z,34.80
2018-07-13T13:02:18.409Z,34.10
2018-07-13T13:04:49.200Z,33.30
2018-07-13T13:07:20.268Z,32.80
2018-07-13T13:09:48.890Z,34.10
2018-07-13T13:12:17.811Z,36.30
2018-07-13T13:14:46.350Z,38.50
2018-07-13T13:17:14.928Z,39.70
2018-07-13T13:19:44.565Z,38.30
2018-07-13T13:22:13.841Z,36.40
2018-07-13T13:24:42.412Z,34.50
2018-07-13T13:27:11.511Z,32.80
2018-07-13T13:29:40.705Z,30.90
2018-07-13T13:32:09.487Z,29.60
2018-07-13T13:34:38.320Z,28.70
2018-07-13T13:39:48.592Z,27.80
2018-07-13T13:42:17.183Z,27.40
2018-07-13T13:44:46.488Z,27.00
2018-07-13T13:47:15.146Z,26.90
2018-07-13T13:49:43.890Z,26.80
2018-07-13T13:52:12.797Z,26.80
2018-07-13T13:54:41.327Z,26.70
2018-07-13T13:57:09.868Z,26.70
2018-07-13T13:59:38.454Z,26.70
2018-07-13T14:02:07.150Z,26.60
2018-07-13T14:04:35.757Z,26.70
2018-07-13T14:07:04.561Z,26.60
2018-07-13T14:09:35.726Z,26.60
2018-07-13T14:12:04.853Z,26.50
2018-07-13T14:14:35.268Z,26.30
2018-07-13T14:17:03.765Z,26.20
2018-07-13T14:19:32.438Z,26.10
2018-07-13T14:22:01.012Z,26.00
2018-07-13T14:24:29.807Z,25.80
2018-07-13T14:26:58.491Z,25.70
2018-07-13T14:29:27.310Z,25.50
2018-07-13T14:31:56.542Z,25.50
2018-07-13T14:34:25.168Z,25.40
2018-07-13T14:36:53.952Z,25.40
2018-07-13T14:39:27.973Z,25.40
2018-07-13T14:41:56.575Z,25.30
2018-07-13T14:44:25.172Z,25.20
2018-07-13T14:46:53.800Z,25.00
2018-07-13T14:49:22.273Z,24.90
2018-07-13T14:51:50.795Z,24.80
2018-07-13T14:54:19.444Z,24.70
2018-07-13T14:56:48.165Z,24.60
2018-07-13T14:59:16.791Z,24.60
2018-07-13T15:01:50.390Z,24.40
2018-07-13T15:04:19.189Z,24.30
2018-07-13T15:06:47.785Z,24.10
2018-07-13T15:09:16.445Z,24.00
2018-07-13T15:11:45.030Z,23.90
2018-07-13T15:14:13.597Z,23.70
2018-07-13T15:16:43.124Z,23.70
2018-07-13T15:19:12.022Z,23.60
2018-07-13T15:21:40.646Z,23.60
2018-07-13T15:24:09.387Z,23.50
2018-07-13T15:26:38.761Z,23.50
2018-07-13T15:29:10.706Z,23.60
2018-07-13T15:31:39.560Z,23.60
2018-07-13T15:34:11.922Z,23.70
2018-07-13T15:36:48.301Z,23.70
2018-07-13T15:39:19.480Z,23.70
2018-07-13T15:41:49.299Z,23.70
2018-07-13T15:44:18.971Z,23.70
2018-07-13T15:49:18.314Z,23.80
2018-07-13T15:51:48.528Z,23.90
2018-07-13T15:54:18.621Z,24.00
2018-07-13T15:56:50.228Z,24.00
2018-07-13T15:59:19.761Z,24.00
2018-07-13T16:01:50.717Z,24.10
2018-07-13T16:04:20.184Z,24.20
2018-07-13T16:06:48.993Z,24.40
2018-07-13T16:09:20.578Z,24.60
2018-07-13T16:11:59.621Z,24.80
2018-07-13T16:14:28.215Z,25.00
2018-07-13T16:16:56.768Z,25.30
2018-07-13T16:19:25.595Z,25.50
2018-07-13T16:21:55.697Z,25.60
2018-07-13T16:24:24.445Z,25.60
2018-07-13T16:26:53.539Z,25.70
2018-07-13T16:29:22.968Z,25.90
2018-07-13T16:31:51.661Z,26.30
2018-07-13T16:34:20.228Z,26.80
2018-07-13T16:36:49.521Z,27.20
2018-07-13T16:39:43.674Z,27.50
2018-07-13T16:42:12.322Z,27.70
2018-07-13T16:44:41.121Z,27.70
2018-07-13T16:47:09.620Z,27.80
2018-07-13T16:49:38.198Z,28.10
2018-07-13T16:52:06.864Z,28.40
2018-07-13T16:54:35.373Z,28.30
2018-07-13T16:57:04.115Z,27.90
2018-07-13T16:59:32.719Z,27.50
2018-07-13T17:02:01.299Z,27.10
2018-07-13T17:04:30.666Z,26.80
2018-07-13T17:06:59.287Z,26.50
2018-07-13T17:09:27.737Z,26.30
2018-07-13T17:11:56.314Z,26.20
2018-07-13T17:14:24.836Z,26.10
2018-07-13T17:16:53.443Z,26.30
2018-07-13T17:19:22.042Z,26.80
2018-07-13T17:26:47.222Z,27.40
2018-07-13T17:29:16.278Z,28.10
2018-07-13T17:31:45.088Z,29.70
2018-07-13T17:34:14.159Z,29.80
2018-07-13T17:36:43.227Z,29.70
2018-07-13T17:39:11.877Z,29.40
2018-07-13T17:41:40.701Z,28.90
2018-07-13T17:44:09.229Z,28.50
2018-07-13T17:46:37.787Z,27.90
2018-07-13T17:49:06.437Z,27.40
2018-07-13T17:51:35.077Z,26.90
2018-07-13T17:54:03.651Z,26.50
2018-07-13T17:56:32.299Z,26.10
2018-07-13T17:59:00.955Z,25.80
2018-07-13T18:01:30.276Z,25.40
2018-07-13T18:03:58.769Z,25.10
2018-07-13T18:06:27.690Z,24.90
2018-07-13T18:08:56.184Z,24.60
2018-07-13T18:11:24.801Z,24.40
2018-07-13T18:13:53.332Z,24.20
2018-07-13T18:16:21.913Z,24.10
2018-07-13T18:18:50.544Z,23.90
2018-07-13T18:21:19.253Z,23.90
2018-07-13T18:23:48.685Z,23.80
2018-07-13T18:26:17.229Z,23.70
2018-07-13T18:28:45.755Z,23.70
2018-07-13T18:31:14.309Z,23.60
2018-07-13T18:33:42.877Z,23.60
2018-07-13T18:36:11.549Z,23.50
2018-07-13T18:38:40.163Z,23.50
2018-07-13T18:41:08.645Z,23.40
2018-07-13T18:43:37.340Z,23.40
2018-07-13T18:46:05.810Z,23.30
2018-07-13T18:48:34.360Z,23.30
2018-07-13T18:51:03.114Z,23.20
2018-07-13T18:53:31.812Z,23.10
2018-07-13T18:56:00.341Z,23.10
2018-07-13T18:58:28.892Z,23.00
2018-07-13T19:00:57.442Z,23.00
2018-07-13T19:03:25.974Z,22.90
2018-07-13T19:05:54.467Z,22.90
2018-07-13T19:08:23.662Z,22.80
2018-07-13T19:10:52.313Z,22.70
2018-07-13T19:13:20.844Z,22.70
2018-07-13T19:15:49.580Z,22.60
2018-07-13T19:18:18.088Z,22.50
2018-07-13T19:20:46.643Z,22.30
2018-07-13T19:23:15.475Z,22.20
2018-07-13T19:25:44.345Z,22.10
2018-07-13T19:28:13.125Z,22.10
2018-07-13T19:30:41.730Z,22.00
2018-07-13T19:33:10.238Z,22.00
2018-07-13T19:35:39.743Z,22.00
2018-07-13T19:38:08.337Z,21.90
2018-07-13T19:40:37.030Z,21.90
2018-07-13T19:43:05.860Z,21.90
2018-07-13T19:45:34.437Z,21.90
2018-07-13T19:48:02.940Z,21.90
2018-07-13T19:50:31.497Z,21.90
2018-07-13T19:53:00.100Z,22.00
2018-07-13T19:55:28.663Z,22.00
2018-07-13T19:57:57.216Z,22.00
2018-07-13T20:00:25.789Z,22.10
2018-07-13T20:02:55.311Z,22.10
2018-07-13T20:05:24.384Z,22.10
2018-07-13T20:07:54.108Z,22.00
2018-07-13T20:10:26.234Z,22.00
2018-07-13T20:12:55.264Z,22.00
2018-07-13T20:15:24.975Z,22.00
2018-07-13T20:17:53.852Z,22.00
2018-07-13T20:20:22.674Z,22.00
2018-07-13T20:22:51.329Z,21.90
2018-07-13T20:25:20.116Z,21.90
2018-07-13T20:27:48.740Z,21.90
2018-07-13T20:30:17.390Z,21.90
2018-07-13T20:32:46.028Z,21.90
2018-07-13T20:35:14.596Z,21.90
2018-07-13T20:37:43.124Z,21.90
2018-07-13T20:40:13.054Z,21.80
2018-07-13T20:42:44.110Z,21.80
2018-07-13T20:45:12.683Z,21.70
2018-07-13T20:47:41.759Z,21.70
2018-07-13T20:50:10.300Z,21.60
2018-07-13T20:52:38.887Z,21.60
2018-07-13T20:55:07.445Z,21.60
2018-07-13T20:57:36.565Z,21.50
2018-07-13T21:00:05.699Z,21.50
2018-07-13T21:02:34.272Z,21.40
2018-07-13T21:05:03.829Z,21.40
2018-07-13T21:07:32.382Z,21.40
2018-07-13T21:33:21.246Z,20.80
2018-07-13T21:35:49.804Z,20.70
2018-07-13T21:38:18.325Z,20.60
2018-07-13T21:45:43.402Z,20.60
2018-07-13T21:48:11.933Z,20.50
2018-07-13T21:50:40.597Z,20.50
2018-07-13T21:53:09.130Z,20.50
2018-07-13T21:58:06.124Z,20.40
2018-07-13T22:05:33.908Z,20.30
2018-07-13T22:08:02.427Z,20.20
2018-07-13T22:10:30.965Z,20.20
2018-07-13T22:12:59.544Z,20.20
2018-07-13T22:15:28.084Z,20.20
2018-07-13T22:20:25.659Z,20.30
2018-07-13T22:22:54.880Z,20.30
2018-07-13T22:25:23.392Z,20.30
2018-07-13T22:27:51.891Z,20.30
2018-07-13T22:30:20.561Z,20.30
2018-07-13T22:32:50.052Z,20.20
2018-07-13T22:35:18.560Z,20.20
2018-07-13T22:37:47.186Z,20.20
2018-07-13T22:40:15.756Z,20.20
2018-07-13T22:45:12.440Z,20.10
2018-07-13T22:55:05.802Z,20.10
2018-07-13T23:02:30.652Z,20.00
2018-07-13T23:04:59.464Z,20.00
2018-07-13T23:17:20.929Z,19.80
2018-07-13T23:19:49.417Z,19.80
2018-07-13T23:22:17.928Z,19.70
2018-07-13T23:24:46.539Z,19.70
2018-07-13T23:27:15.724Z,19.70
2018-07-13T23:34:40.830Z,19.60
2018-07-13T23:49:30.388Z,19.60
